Time;durP1;ratioP1;P1;durP2;ratioP2;P2;SDS_P1;SDS_P2;PMS_P1;PMS_P2;Temp;Humidity;BMP_temperature;BMP_pressure;BME280_temperature;BME280_humidity;BME280_pressure;Samples;Min_cycle;Max_cycle;Signal;HPM_P1;HPM_P2
2023/02/18 00:00:26;;;;;;;6.90;6.20;;;;;12.40;99420.00;;;;5072130;28;20072;-62
2023/02/18 00:02:54;;;;;;;7.25;6.55;;;;;12.40;99417.00;;;;5072326;28;20094;-65
2023/02/18 00:05:21;;;;;;;7.57;6.50;;;;;12.40;99420.00;;;;5072107;28;20118;-62
2023/02/18 00:07:48;;;;;;;7.07;6.47;;;;;12.40;99411.00;;;;5070736;28;20055;-62
2023/02/18 00:10:15;;;;;;;7.97;7.18;;;;;12.40;99414.00;;;;5072218;28;20048;-64
2023/02/18 00:12:41;;;;;;;8.73;6.88;;;;;12.40;99416.00;;;;5072534;28;20559;-63
2023/02/18 00:15:08;;;;;;;7.13;6.43;;;;;12.40;99413.00;;;;5071701;28;20040;-62
2023/02/18 00:17:35;;;;;;;8.80;6.45;;;;;12.40;99406.00;;;;5072163;28;20040;-63
2023/02/18 00:20:04;;;;;;;6.80;6.10;;;;;12.40;99415.00;;;;5071935;28;20047;-62
2023/02/18 00:22:30;;;;;;;7.40;6.70;;;;;12.50;99413.00;;;;5070416;28;20049;-61
2023/02/18 00:24:57;;;;;;;7.22;6.45;;;;;12.50;99411.00;;;;5071047;28;20509;-62
2023/02/18 00:27:23;;;;;;;6.68;6.07;;;;;12.40;99415.00;;;;5072029;28;20037;-62
2023/02/18 00:29:50;;;;;;;6.57;5.75;;;;;12.40;99409.00;;;;5075833;28;20395;-62
2023/02/18 00:32:16;;;;;;;7.47;5.47;;;;;12.40;99420.00;;;;5074352;28;20052;-62
2023/02/18 00:34:43;;;;;;;6.40;5.80;;;;;12.50;99412.00;;;;5074843;28;20040;-62
2023/02/18 00:37:09;;;;;;;7.00;5.40;;;;;12.50;99407.00;;;;5075420;28;20474;-61
2023/02/18 00:39:36;;;;;;;5.32;4.82;;;;;12.50;99414.00;;;;5075523;28;20045;-62
2023/02/18 00:42:02;;;;;;;5.10;4.70;;;;;12.50;99406.00;;;;5073968;28;20098;-61
2023/02/18 00:44:29;;;;;;;5.53;4.97;;;;;12.50;99401.00;;;;5073376;28;20054;-62
2023/02/18 00:46:56;;;;;;;7.57;5.50;;;;;12.50;99398.00;;;;5073963;28;20087;-62
2023/02/18 00:49:22;;;;;;;5.72;5.22;;;;;12.50;99396.00;;;;5075394;28;20037;-62
2023/02/18 00:51:49;;;;;;;6.22;5.60;;;;;12.50;99407.00;;;;5077647;28;20044;-61
2023/02/18 00:54:16;;;;;;;6.32;5.60;;;;;12.50;99394.00;;;;5075854;28;20048;-61
2023/02/18 00:56:42;;;;;;;5.75;5.25;;;;;12.40;99387.00;;;;5077128;28;20040;-61
2023/02/18 00:59:09;;;;;;;6.20;5.03;;;;;12.40;99399.00;;;;5074343;28;20559;-61
2023/02/18 01:01:36;;;;;;;5.90;5.30;;;;;12.40;99396.00;;;;5074060;28;20501;-62
2023/02/18 01:04:03;;;;;;;6.05;5.45;;;;;12.50;99388.00;;;;5074893;28;20051;-62
2023/02/18 01:06:30;;;;;;;5.93;5.35;;;;;12.50;99398.00;;;;5073646;28;20048;-62
2023/02/18 01:08:57;;;;;;;5.65;5.03;;;;;12.50;99395.00;;;;5073583;28;20118;-62
2023/02/18 01:11:23;;;;;;;9.95;6.38;;;;;12.50;99387.00;;;;5074754;28;20045;-62
2023/02/18 01:13:50;;;;;;;6.50;5.63;;;;;12.50;99401.00;;;;5075086;28;20053;-62
2023/02/18 01:16:17;;;;;;;6.07;5.47;;;;;12.50;99409.00;;;;5073237;28;20421;-62
2023/02/18 01:18:45;;;;;;;5.65;5.03;;;;;12.40;99401.00;;;;5073593;28;20135;-61
2023/02/18 01:21:12;;;;;;;6.18;5.43;;;;;12.40;99411.00;;;;5074686;28;20041;-60
2023/02/18 01:23:41;;;;;;;6.75;6.05;;;;;12.50;99406.00;;;;5073216;28;20071;-61
2023/02/18 01:26:10;;;;;;;6.25;5.70;;;;;12.50;99404.00;;;;5072902;28;20409;-63
2023/02/18 01:28:38;;;;;;;6.93;5.43;;;;;12.50;99385.00;;;;5073075;28;20155;-63
2023/02/18 01:31:08;;;;;;;6.22;5.63;;;;;12.40;99396.00;;;;5074371;28;20055;-62
2023/02/18 01:33:35;;;;;;;7.03;6.32;;;;;12.40;99400.00;;;;5073051;28;20135;-62
2023/02/18 01:36:02;;;;;;;7.93;5.93;;;;;12.30;99387.00;;;;5072456;28;20048;-62
2023/02/18 01:38:29;;;;;;;9.20;6.38;;;;;12.30;99385.00;;;;5072895;28;20481;-62
2023/02/18 01:40:56;;;;;;;6.43;5.82;;;;;12.30;99394.00;;;;5073209;28;20051;-62
2023/02/18 01:43:22;;;;;;;6.50;5.90;;;;;12.30;99389.00;;;;5074053;28;20115;-62
2023/02/18 01:45:58;;;;;;;6.72;6.13;;;;;12.30;99391.00;;;;5073357;28;20044;-62
2023/02/18 01:48:45;;;;;;;6.80;6.10;;;;;12.30;99390.00;;;;5072686;28;20048;-62
2023/02/18 01:51:27;;;;;;;6.85;6.15;;;;;12.30;99398.00;;;;5072714;28;20071;-62
2023/02/18 01:54:01;;;;;;;7.43;6.60;;;;;12.40;99391.00;;;;5078070;28;20079;-62
2023/02/18 01:56:41;;;;;;;7.13;6.43;;;;;12.40;99400.00;;;;5082398;28;20044;-62
2023/02/18 01:59:11;;;;;;;7.07;6.38;;;;;12.30;99397.00;;;;5059231;28;20044;-62
2023/02/18 02:01:40;;;;;;;6.82;6.13;;;;;12.30;99383.00;;;;5073959;28;20036;-62
2023/02/18 02:04:07;;;;;;;6.55;5.70;;;;;12.30;99390.00;;;;5071764;28;20045;-62
2023/02/18 02:06:34;;;;;;;8.55;6.18;;;;;12.30;99380.00;;;;5074378;28;20043;-62
2023/02/18 02:09:04;;;;;;;7.47;6.65;;;;;12.30;99384.00;;;;5074038;28;20041;-62
2023/02/18 02:11:46;;;;;;;6.68;5.75;;;;;12.30;99383.00;;;;5073641;28;20048;-61
2023/02/18 02:14:38;;;;;;;7.65;6.43;;;;;12.30;99368.00;;;;5072857;28;20481;-61
2023/02/18 02:17:15;;;;;;;6.20;5.20;;;;;12.40;99372.00;;;;5042398;28;20076;-61
2023/02/18 02:20:16;;;;;;;6.28;5.68;;;;;12.40;99381.00;;;;5073423;28;20044;-62
2023/02/18 02:23:21;;;;;;;6.78;5.85;;;;;12.40;99367.00;;;;5071945;28;20055;-62
2023/02/18 02:25:56;;;;;;;6.85;5.50;;;;;12.30;99356.00;;;;5072676;28;20052;-61
2023/02/18 02:28:41;;;;;;;6.28;5.50;;;;;12.20;99345.00;;;;5071900;28;20051;-62
2023/02/18 02:31:33;;;;;;;6.20;5.53;;;;;12.20;99342.00;;;;5071920;28;20064;-62
2023/02/18 02:34:36;;;;;;;6.50;5.80;;;;;12.20;99335.00;;;;5073127;28;20041;-63
2023/02/18 02:37:35;;;;;;;6.78;6.07;;;;;12.20;99329.00;;;;5073325;28;20037;-62
2023/02/18 02:40:20;;;;;;;6.18;5.55;;;;;12.20;99327.00;;;;5040177;28;20102;-62
2023/02/18 02:43:18;;;;;;;6.40;5.80;;;;;12.30;99325.00;;;;5072147;28;20044;-62
2023/02/18 02:45:56;;;;;;;6.20;5.60;;;;;12.30;99337.00;;;;5071706;28;20566;-62
2023/02/18 02:48:38;;;;;;;7.55;6.20;;;;;12.20;99332.00;;;;5073360;28;20041;-62
2023/02/18 02:51:19;;;;;;;8.48;6.25;;;;;12.20;99339.00;;;;5071787;28;20087;-60
2023/02/18 02:53:46;;;;;;;7.30;6.22;;;;;12.10;99328.00;;;;5073465;28;20051;-62
2023/02/18 02:56:23;;;;;;;6.75;6.03;;;;;12.10;99329.00;;;;5071365;28;20048;-60
2023/02/18 02:58:58;;;;;;;6.93;6.22;;;;;12.20;99330.00;;;;5071934;28;20072;-62
2023/02/18 03:01:47;;;;;;;6.57;5.75;;;;;12.20;99339.00;;;;5071989;28;20044;-62
2023/02/18 03:04:42;;;;;;;7.00;6.03;;;;;12.20;99335.00;;;;5055127;28;20413;-61
2023/02/18 03:07:22;;;;;;;7.60;6.47;;;;;12.20;99326.00;;;;5071832;28;20098;-61
2023/02/18 03:10:27;;;;;;;7.22;6.38;;;;;12.20;99324.00;;;;5072223;28;20048;-61
2023/02/18 03:13:30;;;;;;;7.20;5.90;;;;;12.20;99323.00;;;;5054528;28;20463;-61
2023/02/18 03:16:13;;;;;;;7.63;6.85;;;;;12.10;99306.00;;;;5054518;28;20046;-61
2023/02/18 03:18:45;;;;;;;7.93;6.22;;;;;12.10;99307.00;;;;5072025;28;20044;-61
2023/02/18 03:21:27;;;;;;;8.00;6.85;;;;;12.10;99296.00;;;;5072655;28;20081;-62
2023/02/18 03:24:01;;;;;;;8.13;7.33;;;;;12.10;99304.00;;;;5071274;28;20044;-62
2023/02/18 03:26:30;;;;;;;7.50;6.80;;;;;12.10;99315.00;;;;5070669;28;20049;-62
2023/02/18 03:29:01;;;;;;;7.97;7.18;;;;;12.10;99308.00;;;;5071026;28;20037;-61
2023/02/18 03:31:29;;;;;;;7.93;7.13;;;;;12.10;99319.00;;;;5071646;28;20049;-61
2023/02/18 03:34:06;;;;;;;7.28;6.57;;;;;12.10;99310.00;;;;5072303;28;20048;-62
2023/02/18 03:36:35;;;;;;;10.23;7.30;;;;;12.10;99326.00;;;;5071059;28;20045;-62
2023/02/18 03:39:06;;;;;;;8.13;7.32;;;;;12.10;99315.00;;;;5072180;28;20051;-62
2023/02/18 03:41:34;;;;;;;8.45;6.72;;;;;12.10;99326.00;;;;5071059;28;20520;-62
2023/02/18 03:44:04;;;;;;;8.38;6.78;;;;;12.10;99323.00;;;;5070767;28;20068;-61
2023/02/18 03:46:32;;;;;;;7.50;6.80;;;;;12.10;99320.00;;;;5071494;28;20063;-62
2023/02/18 03:48:58;;;;;;;8.20;6.75;;;;;12.10;99312.00;;;;5072281;28;20509;-62
2023/02/18 03:51:25;;;;;;;7.72;6.93;;;;;12.10;99309.00;;;;5072358;28;20494;-62
2023/02/18 03:53:52;;;;;;;7.53;6.13;;;;;12.10;99321.00;;;;5071942;28;20055;-62
2023/02/18 03:56:19;;;;;;;8.13;6.55;;;;;12.10;99310.00;;;;5070388;28;20047;-62
2023/02/18 03:58:46;;;;;;;8.18;6.30;;;;;12.10;99309.00;;;;5072441;28;20040;-61
2023/02/18 04:01:12;;;;;;;7.18;6.47;;;;;12.10;99292.00;;;;5072174;28;20050;-61
2023/02/18 04:03:39;;;;;;;6.45;5.75;;;;;12.10;99284.00;;;;5074502;28;20049;-62
2023/02/18 04:06:06;;;;;;;6.75;6.00;;;;;12.10;99284.00;;;;5075571;28;20086;-62
2023/02/18 04:08:33;;;;;;;8.10;6.07;;;;;12.10;99283.00;;;;5075937;28;20033;-62
2023/02/18 04:11:00;;;;;;;7.05;6.35;;;;;12.10;99290.00;;;;5076050;28;20045;-61
2023/02/18 04:13:27;;;;;;;6.63;6.00;;;;;12.10;99278.00;;;;5074946;28;20401;-61
2023/02/18 04:15:54;;;;;;;6.82;6.18;;;;;12.10;99279.00;;;;5075618;28;20048;-62
2023/02/18 04:18:21;;;;;;;8.57;5.93;;;;;12.10;99297.00;;;;5076200;28;20045;-62
2023/02/18 04:20:47;;;;;;;6.10;5.50;;;;;12.10;99283.00;;;;5075238;28;20044;-61
2023/02/18 04:23:16;;;;;;;7.22;6.53;;;;;12.10;99283.00;;;;5076011;28;20040;-62
2023/02/18 04:25:42;;;;;;;6.30;5.60;;;;;12.10;99289.00;;;;5073940;28;20052;-61
2023/02/18 04:28:12;;;;;;;6.55;5.75;;;;;12.10;99282.00;;;;5057779;28;20463;-62
2023/02/18 04:30:38;;;;;;;6.68;5.95;;;;;12.10;99278.00;;;;5075947;28;20049;-62
2023/02/18 04:33:05;;;;;;;7.68;5.63;;;;;12.20;99283.00;;;;5075533;28;20453;-62
2023/02/18 04:35:32;;;;;;;6.82;6.13;;;;;12.10;99287.00;;;;5074959;28;20048;-62
2023/02/18 04:37:59;;;;;;;5.70;5.15;;;;;12.10;99287.00;;;;5075432;28;20047;-62
2023/02/18 04:40:28;;;;;;;6.22;5.63;;;;;12.10;99289.00;;;;5075616;28;20051;-61
2023/02/18 04:42:58;;;;;;;5.78;5.10;;;;;12.10;99285.00;;;;5075464;28;20094;-62
2023/02/18 04:45:26;;;;;;;6.10;5.50;;;;;12.10;99288.00;;;;5075442;28;20051;-62
2023/02/18 04:47:53;;;;;;;6.38;5.78;;;;;12.10;99280.00;;;;5075527;28;20044;-62
2023/02/18 04:50:21;;;;;;;7.30;5.80;;;;;12.00;99273.00;;;;5075216;28;20493;-62
2023/02/18 04:52:48;;;;;;;6.10;5.25;;;;;12.00;99267.00;;;;5075281;28;20040;-62
2023/02/18 04:55:15;;;;;;;5.95;5.35;;;;;12.10;99257.00;;;;5074315;28;20048;-63
2023/02/18 04:57:41;;;;;;;6.07;5.47;;;;;12.10;99253.00;;;;5074832;28;20045;-62
2023/02/18 05:00:12;;;;;;;7.22;5.38;;;;;12.00;99278.00;;;;5073925;28;20044;-62
2023/02/18 05:02:39;;;;;;;5.47;4.97;;;;;12.00;99270.00;;;;5075121;28;20098;-62
2023/02/18 05:05:06;;;;;;;6.03;5.03;;;;;12.00;99271.00;;;;5074357;28;20048;-62
2023/02/18 05:07:32;;;;;;;6.28;5.72;;;;;11.90;99262.00;;;;5074924;28;20071;-62
2023/02/18 05:09:59;;;;;;;6.03;5.28;;;;;11.90;99269.00;;;;5074880;28;20098;-62
2023/02/18 05:12:25;;;;;;;6.72;5.50;;;;;11.90;99267.00;;;;5074817;28;20497;-62
2023/02/18 05:14:52;;;;;;;5.57;4.88;;;;;11.80;99260.00;;;;5071700;28;20052;-62
2023/02/18 05:17:18;;;;;;;5.13;4.35;;;;;11.80;99269.00;;;;5076782;28;20056;-62
2023/02/18 05:19:45;;;;;;;5.68;5.18;;;;;11.90;99272.00;;;;5075548;28;20048;-62
2023/02/18 05:22:11;;;;;;;5.90;5.30;;;;;11.90;99276.00;;;;5075942;28;20048;-62
2023/02/18 05:24:38;;;;;;;9.82;5.22;;;;;11.90;99271.00;;;;5076923;28;20045;-61
2023/02/18 05:27:04;;;;;;;8.43;5.70;;;;;11.90;99258.00;;;;5077238;28;20497;-61
2023/02/18 05:29:31;;;;;;;6.07;5.43;;;;;11.90;99252.00;;;;5077069;28;20091;-61
2023/02/18 05:31:57;;;;;;;7.03;5.97;;;;;11.90;99251.00;;;;5077216;28;20090;-62
2023/02/18 05:34:24;;;;;;;6.15;5.55;;;;;11.90;99254.00;;;;5076882;28;20048;-62
2023/02/18 05:36:50;;;;;;;6.28;5.25;;;;;11.90;99253.00;;;;5077314;28;20110;-62
2023/02/18 05:39:17;;;;;;;6.68;5.68;;;;;11.90;99258.00;;;;5077537;28;20037;-62
2023/02/18 05:41:43;;;;;;;6.88;5.65;;;;;11.90;99255.00;;;;5076941;28;20048;-62
2023/02/18 05:44:52;;;;;;;7.32;6.10;;;;;11.90;99245.00;;;;5074864;28;20045;-61
2023/02/18 05:47:02;;;;;;;6.95;5.85;;;;;11.90;99250.00;;;;5069747;28;20517;-61
2023/02/18 05:49:30;;;;;;;7.90;5.90;;;;;11.90;99258.00;;;;5076404;28;20045;-62
2023/02/18 05:51:57;;;;;;;6.13;5.53;;;;;11.90;99245.00;;;;5074940;28;20045;-62
2023/02/18 05:54:24;;;;;;;8.35;5.90;;;;;11.90;99251.00;;;;5075240;28;20543;-63
2023/02/18 05:56:51;;;;;;;6.45;5.78;;;;;11.90;99257.00;;;;5075419;28;20101;-62
2023/02/18 05:59:18;;;;;;;7.75;6.88;;;;;11.90;99257.00;;;;5074792;28;20048;-62
2023/02/18 06:01:45;;;;;;;7.75;6.30;;;;;12.00;99262.00;;;;5075452;28;20055;-63
2023/02/18 06:04:12;;;;;;;9.15;6.75;;;;;12.00;99253.00;;;;5074951;28;20060;-62
2023/02/18 06:06:38;;;;;;;8.77;7.25;;;;;12.00;99257.00;;;;5075762;28;20096;-63
2023/02/18 06:09:06;;;;;;;7.75;6.95;;;;;12.00;99251.00;;;;5075827;28;20037;-63
2023/02/18 06:11:33;;;;;;;9.23;7.80;;;;;12.00;99251.00;;;;5057572;28;20063;-63
2023/02/18 06:14:00;;;;;;;8.77;7.88;;;;;11.90;99249.00;;;;5075864;28;20550;-63
2023/02/18 06:16:26;;;;;;;10.02;7.88;;;;;11.90;99238.00;;;;5075264;28;20098;-63
2023/02/18 06:18:53;;;;;;;10.63;7.93;;;;;12.00;99233.00;;;;5075941;28;20460;-63
2023/02/18 06:21:20;;;;;;;10.75;9.18;;;;;11.90;99234.00;;;;5073807;28;20044;-62
2023/02/18 06:23:46;;;;;;;9.20;8.13;;;;;11.90;99235.00;;;;5073427;28;20431;-61
2023/02/18 06:26:13;;;;;;;9.20;8.30;;;;;11.90;99225.00;;;;5072366;28;20048;-62
2023/02/18 06:28:40;;;;;;;12.52;8.32;;;;;11.90;99228.00;;;;5073348;28;20459;-63
2023/02/18 06:31:06;;;;;;;9.52;8.52;;;;;11.90;99219.00;;;;5073208;28;20517;-61
2023/02/18 06:33:33;;;;;;;10.57;8.43;;;;;12.00;99222.00;;;;5073822;28;20391;-61
2023/02/18 06:36:10;;;;;;;9.88;8.77;;;;;12.00;99220.00;;;;5072853;28;20440;-62
2023/02/18 06:38:41;;;;;;;9.38;8.45;;;;;11.90;99215.00;;;;5073076;28;20072;-61
2023/02/18 06:41:09;;;;;;;10.43;9.32;;;;;11.90;99205.00;;;;5073158;28;20531;-62
2023/02/18 06:43:36;;;;;;;10.85;8.95;;;;;12.00;99192.00;;;;5072949;28;20040;-62
2023/02/18 06:46:03;;;;;;;11.25;9.10;;;;;11.90;99185.00;;;;5071066;28;20524;-62
2023/02/18 06:48:30;;;;;;;12.38;9.35;;;;;12.00;99189.00;;;;5071725;28;20094;-62
2023/02/18 06:50:57;;;;;;;10.82;9.50;;;;;12.00;99193.00;;;;5072797;28;20528;-61
2023/02/18 06:53:24;;;;;;;10.63;9.00;;;;;12.00;99199.00;;;;5071424;28;20049;-62
2023/02/18 06:55:50;;;;;;;9.57;8.65;;;;;12.00;99186.00;;;;5072252;28;20044;-62
2023/02/18 06:58:17;;;;;;;10.88;9.10;;;;;12.00;99182.00;;;;5072561;28;20036;-62
2023/02/18 07:00:43;;;;;;;12.48;9.13;;;;;12.00;99174.00;;;;5072888;28;20067;-62
2023/02/18 07:03:12;;;;;;;10.60;9.13;;;;;12.00;99190.00;;;;5072723;28;20049;-62
2023/02/18 07:05:38;;;;;;;11.10;9.57;;;;;12.10;99202.00;;;;5071915;28;20044;-61
2023/02/18 07:08:05;;;;;;;9.82;8.82;;;;;12.10;99197.00;;;;5072495;28;20489;-62
2023/02/18 07:10:31;;;;;;;10.65;8.95;;;;;12.10;99197.00;;;;5072740;28;20105;-62
2023/02/18 07:12:58;;;;;;;10.35;9.27;;;;;12.10;99184.00;;;;5072373;28;20063;-62
2023/02/18 07:15:26;;;;;;;10.45;9.07;;;;;12.10;99191.00;;;;5071676;28;20045;-62
2023/02/18 07:17:53;;;;;;;9.85;8.70;;;;;12.10;99190.00;;;;5072899;28;20071;-62
2023/02/18 07:20:21;;;;;;;10.02;8.57;;;;;12.20;99177.00;;;;5072679;28;20044;-60
2023/02/18 07:22:48;;;;;;;11.68;9.07;;;;;12.10;99180.00;;;;5072433;28;20047;-60
2023/02/18 07:25:14;;;;;;;10.20;9.02;;;;;12.10;99164.00;;;;5072078;28;20052;-60
2023/02/18 07:27:41;;;;;;;10.07;8.70;;;;;12.20;99174.00;;;;5072671;28;20122;-63
2023/02/18 07:30:08;;;;;;;10.95;9.43;;;;;12.20;99171.00;;;;5072623;28;20057;-61
2023/02/18 07:32:34;;;;;;;11.02;8.48;;;;;12.30;99174.00;;;;5072520;28;20040;-61
2023/02/18 07:35:02;;;;;;;9.98;8.82;;;;;12.30;99165.00;;;;5073002;28;20049;-62
2023/02/18 07:37:29;;;;;;;10.00;9.00;;;;;12.30;99175.00;;;;5071143;28;20045;-62
2023/02/18 07:39:55;;;;;;;11.23;9.30;;;;;12.30;99173.00;;;;5073123;28;20037;-62
2023/02/18 07:42:22;;;;;;;10.63;8.75;;;;;12.30;99177.00;;;;5073169;28;20044;-61
2023/02/18 07:44:48;;;;;;;10.43;8.45;;;;;12.30;99186.00;;;;5072713;28;20054;-62
2023/02/18 07:47:18;;;;;;;9.77;8.75;;;;;12.30;99182.00;;;;5073138;28;20048;-62
2023/02/18 07:49:45;;;;;;;9.57;8.57;;;;;12.30;99195.00;;;;5073374;28;20115;-62
2023/02/18 07:52:16;;;;;;;10.43;9.07;;;;;12.30;99185.00;;;;5073064;28;20090;-62
2023/02/18 07:54:42;;;;;;;10.77;8.48;;;;;12.30;99186.00;;;;5071169;28;20579;-62
2023/02/18 07:57:09;;;;;;;10.35;8.90;;;;;12.30;99178.00;;;;5073087;28;20048;-63
2023/02/18 07:59:35;;;;;;;9.52;8.13;;;;;12.30;99184.00;;;;5072997;28;20041;-61
2023/02/18 08:02:04;;;;;;;10.02;8.85;;;;;12.30;99180.00;;;;5071481;28;20166;-62
2023/02/18 08:04:31;;;;;;;10.13;8.93;;;;;12.30;99189.00;;;;5071935;28;20135;-61
2023/02/18 08:06:57;;;;;;;9.68;8.68;;;;;12.30;99189.00;;;;5072505;28;20071;-61
2023/02/18 08:09:24;;;;;;;9.82;8.82;;;;;12.30;99185.00;;;;5073315;28;20467;-62
2023/02/18 08:11:50;;;;;;;11.18;9.02;;;;;12.30;99186.00;;;;5073150;28;20047;-62
2023/02/18 08:14:17;;;;;;;11.05;9.45;;;;;12.30;99184.00;;;;5072258;28;20602;-63
2023/02/18 08:16:43;;;;;;;10.80;9.70;;;;;12.20;99185.00;;;;5071341;28;20103;-62
2023/02/18 08:19:10;;;;;;;11.57;9.20;;;;;12.20;99173.00;;;;5071191;28;20108;-62
2023/02/18 08:21:36;;;;;;;11.60;9.68;;;;;12.20;99172.00;;;;5071844;28;20044;-61
2023/02/18 08:24:03;;;;;;;10.70;9.60;;;;;12.20;99184.00;;;;5070649;28;20044;-61
2023/02/18 08:26:30;;;;;;;10.13;9.13;;;;;12.20;99177.00;;;;5071998;28;20070;-61
2023/02/18 08:28:56;;;;;;;11.57;9.75;;;;;12.20;99182.00;;;;5072320;28;20088;-61
2023/02/18 08:31:25;;;;;;;11.25;8.55;;;;;12.30;99176.00;;;;5072684;28;20055;-61
2023/02/18 08:33:54;;;;;;;10.38;7.82;;;;;12.30;99186.00;;;;5072226;28;20048;-61
2023/02/18 08:36:21;;;;;;;13.07;8.73;;;;;12.30;99173.00;;;;5071638;28;20420;-61
2023/02/18 08:38:48;;;;;;;10.40;9.30;;;;;12.30;99173.00;;;;5072227;28;20040;-62
2023/02/18 08:41:17;;;;;;;9.75;8.75;;;;;12.40;99169.00;;;;5072113;28;20511;-61
2023/02/18 08:43:45;;;;;;;11.98;8.48;;;;;12.50;99164.00;;;;5072078;28;20564;-60
2023/02/18 08:46:12;;;;;;;9.65;8.38;;;;;12.60;99165.00;;;;5070615;28;20044;-60
2023/02/18 08:48:43;;;;;;;11.63;9.02;;;;;12.60;99161.00;;;;5072727;28;20060;-61
2023/02/18 08:51:15;;;;;;;11.25;9.77;;;;;12.70;99147.00;;;;5074071;28;20390;-62
2023/02/18 08:53:42;;;;;;;9.35;8.25;;;;;12.70;99154.00;;;;5075152;28;20043;-61
2023/02/18 08:56:09;;;;;;;11.02;8.27;;;;;12.70;99162.00;;;;5074964;28;20058;-61
2023/02/18 08:58:36;;;;;;;10.43;8.95;;;;;12.80;99147.00;;;;5075452;28;20048;-61
2023/02/18 09:01:05;;;;;;;13.95;10.10;;;;;12.90;99148.00;;;;5075062;28;20041;-61
2023/02/18 09:03:33;;;;;;;9.80;8.57;;;;;12.90;99145.00;;;;5075717;28;20410;-61
2023/02/18 09:06:00;;;;;;;11.02;9.15;;;;;12.90;99152.00;;;;5074753;28;20051;-61
2023/02/18 09:08:27;;;;;;;10.88;8.48;;;;;13.00;99154.00;;;;5074969;28;20649;-61
2023/02/18 09:10:59;;;;;;;11.45;8.70;;;;;13.00;99170.00;;;;5075395;28;20055;-62
2023/02/18 09:13:27;;;;;;;9.50;8.50;;;;;13.00;99166.00;;;;5075440;28;20048;-62
2023/02/18 09:16:21;;;;;;;9.23;7.93;;;;;13.10;99173.00;;;;5073123;28;20501;-61
2023/02/18 09:18:51;;;;;;;10.02;8.25;;;;;13.10;99182.00;;;;5074832;28;20482;-61
2023/02/18 09:21:19;;;;;;;8.70;7.78;;;;;13.00;99184.00;;;;5074740;28;20040;-62
2023/02/18 09:23:46;;;;;;;10.40;9.07;;;;;12.90;99187.00;;;;5074622;28;20048;-62
2023/02/18 09:26:15;;;;;;;11.00;8.57;;;;;12.80;99208.00;;;;5073999;28;20056;-63
2023/02/18 09:28:42;;;;;;;9.98;8.38;;;;;12.70;99205.00;;;;5074647;28;20060;-62
2023/02/18 09:31:15;;;;;;;12.70;8.30;;;;;12.70;99185.00;;;;5073513;28;20501;-61
2023/02/18 09:33:45;;;;;;;9.20;8.30;;;;;12.70;99186.00;;;;5074546;28;20082;-62
2023/02/18 09:36:12;;;;;;;11.98;8.65;;;;;12.70;99191.00;;;;5073980;28;20052;-62
2023/02/18 09:38:38;;;;;;;13.23;9.50;;;;;12.70;99188.00;;;;5074266;28;20036;-62
2023/02/18 09:41:09;;;;;;;10.20;8.32;;;;;12.70;99184.00;;;;5074538;28;20041;-62
2023/02/18 09:43:44;;;;;;;8.93;7.95;;;;;12.80;99196.00;;;;5074275;28;20048;-62
2023/02/18 09:46:20;;;;;;;9.10;7.55;;;;;12.80;99191.00;;;;5073911;28;20048;-62
2023/02/18 09:48:47;;;;;;;9.35;7.93;;;;;12.80;99188.00;;;;5074315;28;20438;-61
2023/02/18 09:51:15;;;;;;;13.15;8.35;;;;;12.80;99190.00;;;;5076881;28;20113;-62
2023/02/18 09:53:44;;;;;;;9.43;7.68;;;;;12.80;99184.00;;;;5077865;28;20522;-62
2023/02/18 09:56:14;;;;;;;10.48;8.57;;;;;12.80;99187.00;;;;5074985;28;20429;-61
2023/02/18 09:58:42;;;;;;;8.82;7.82;;;;;12.80;99192.00;;;;5074330;28;20040;-61
2023/02/18 10:01:19;;;;;;;13.45;8.48;;;;;12.80;99197.00;;;;5073392;28;20040;-62
2023/02/18 10:03:46;;;;;;;12.38;8.55;;;;;12.90;99205.00;;;;5073994;28;20041;-61
2023/02/18 10:06:21;;;;;;;17.40;10.18;;;;;13.00;99189.00;;;;5073492;28;20055;-61
2023/02/18 10:08:50;;;;;;;13.07;10.55;;;;;13.00;99194.00;;;;5074205;28;20067;-61
2023/02/18 10:11:39;;;;;;;11.82;10.63;;;;;13.00;99197.00;;;;5073981;28;20040;-63
2023/02/18 10:14:12;;;;;;;13.20;11.52;;;;;13.10;99189.00;;;;5073440;28;20055;-63
2023/02/18 10:16:38;;;;;;;13.98;12.57;;;;;13.20;99182.00;;;;5073673;28;20048;-61
2023/02/18 10:19:22;;;;;;;13.95;12.55;;;;;13.40;99184.00;;;;5073522;28;20044;-61
2023/02/18 10:21:50;;;;;;;15.40;12.70;;;;;13.40;99199.00;;;;5074084;28;20113;-61
2023/02/18 10:24:20;;;;;;;14.27;12.88;;;;;13.40;99185.00;;;;5073372;28;20048;-61
2023/02/18 10:26:47;;;;;;;15.98;13.63;;;;;13.50;99188.00;;;;5074453;28;20044;-61
2023/02/18 10:29:16;;;;;;;12.98;11.30;;;;;13.70;99197.00;;;;5073284;28;20485;-62
2023/02/18 10:32:15;;;;;;;11.20;10.02;;;;;13.70;99226.00;;;;5074364;28;20055;-61
2023/02/18 10:35:01;;;;;;;9.68;8.68;;;;;13.70;99216.00;;;;5073254;28;20052;-62
2023/02/18 10:37:51;;;;;;;10.05;9.05;;;;;13.70;99195.00;;;;5073617;28;20052;-61
2023/02/18 10:40:49;;;;;;;9.93;8.93;;;;;13.80;99218.00;;;;5073183;28;20048;-63
2023/02/18 10:43:44;;;;;;;11.00;8.55;;;;;13.80;99230.00;;;;5073215;28;20045;-65
2023/02/18 10:46:30;;;;;;;12.52;7.50;;;;;13.80;99228.00;;;;5072557;28;20040;-62
2023/02/18 10:49:11;;;;;;;8.77;6.80;;;;;13.80;99231.00;;;;5073202;28;20064;-63
2023/02/18 10:51:45;;;;;;;7.63;6.45;;;;;13.80;99226.00;;;;5072979;28;20040;-62
2023/02/18 10:54:13;;;;;;;7.35;6.18;;;;;13.80;99230.00;;;;5072515;28;20306;-63
2023/02/18 10:56:46;;;;;;;7.38;6.63;;;;;13.80;99235.00;;;;5072852;28;20040;-63
2023/02/18 10:59:18;;;;;;;8.13;6.32;;;;;13.90;99229.00;;;;5071591;28;20412;-63
2023/02/18 11:01:51;;;;;;;7.78;6.28;;;;;14.00;99230.00;;;;5072984;28;20048;-62
2023/02/18 11:04:30;;;;;;;6.40;5.55;;;;;14.10;99229.00;;;;5072176;28;20054;-61
2023/02/18 11:07:04;;;;;;;7.70;6.40;;;;;14.10;99224.00;;;;5071553;28;20045;-61
2023/02/18 11:09:51;;;;;;;6.10;5.55;;;;;14.20;99226.00;;;;5055066;28;20050;-62
2023/02/18 11:12:46;;;;;;;6.88;6.00;;;;;14.30;99244.00;;;;5072568;28;20046;-63
2023/02/18 11:15:13;;;;;;;5.97;5.28;;;;;14.30;99214.00;;;;5044419;28;20056;-63
2023/02/18 11:17:45;;;;;;;6.88;5.70;;;;;14.40;99224.00;;;;5071136;28;20102;-63
2023/02/18 11:20:23;;;;;;;8.30;5.47;;;;;14.50;99221.00;;;;5072554;28;20047;-62
2023/02/18 11:22:50;;;;;;;7.47;4.95;;;;;14.60;99230.00;;;;5071047;28;20078;-61
2023/02/18 11:25:26;;;;;;;11.60;5.25;;;;;14.60;99222.00;;;;5070302;28;20052;-61
2023/02/18 11:27:59;;;;;;;8.32;5.68;;;;;14.50;99237.00;;;;5070999;28;20048;-61
2023/02/18 11:30:31;;;;;;;6.55;5.22;;;;;14.60;99211.00;;;;5070921;28;20032;-62
2023/02/18 11:33:46;;;;;;;9.35;5.45;;;;;14.70;99215.00;;;;5072235;28;20044;-61
2023/02/18 11:36:22;;;;;;;8.77;6.38;;;;;14.80;99230.00;;;;5065641;28;20056;-61
2023/02/18 11:38:53;;;;;;;6.30;5.60;;;;;15.00;99217.00;;;;5072293;28;20105;-61
2023/02/18 11:41:29;;;;;;;5.80;5.20;;;;;15.10;99214.00;;;;5070995;28;20049;-60
2023/02/18 11:43:57;;;;;;;7.03;5.35;;;;;15.00;99212.00;;;;5072093;28;20101;-61
2023/02/18 11:46:26;;;;;;;5.90;5.30;;;;;15.10;99208.00;;;;5071881;28;20044;-61
2023/02/18 11:48:53;;;;;;;6.63;5.47;;;;;15.00;99192.00;;;;5072292;28;20036;-62
2023/02/18 11:51:27;;;;;;;6.30;5.70;;;;;15.00;99195.00;;;;5072161;28;20098;-62
2023/02/18 11:54:01;;;;;;;;;;;;;15.10;99186.00;;;;5073101;28;20040;-61
2023/02/18 11:56:33;;;;;;;5.63;5.13;;;;;15.10;99176.00;;;;5072552;28;19920;-62
2023/02/18 11:59:01;;;;;;;6.45;5.63;;;;;15.10;99190.00;;;;5072179;28;20467;-61
2023/02/18 12:01:49;;;;;;;7.93;6.03;;;;;15.10;99175.00;;;;5072718;28;20067;-62
2023/02/18 12:04:19;;;;;;;7.28;5.35;;;;;15.10;99161.00;;;;5071830;28;20131;-61
2023/02/18 12:07:04;;;;;;;5.75;5.07;;;;;15.10;99176.00;;;;5072296;28;20416;-61
2023/02/18 12:09:37;;;;;;;5.63;4.50;;;;;15.00;99185.00;;;;5072729;28;20115;-61
2023/02/18 12:12:14;;;;;;;6.75;5.25;;;;;14.90;99163.00;;;;5072410;28;20040;-61
2023/02/18 12:14:42;;;;;;;6.18;4.93;;;;;14.90;99166.00;;;;5071560;28;20048;-62
2023/02/18 12:18:00;;;;;;;6.55;5.05;;;;;15.00;99147.00;;;;5072223;28;20413;-61
2023/02/18 12:21:03;;;;;;;5.40;4.43;;;;;15.00;99162.00;;;;5038231;28;20069;-60
2023/02/18 12:23:45;;;;;;;4.95;4.53;;;;;15.10;99153.00;;;;5061879;28;20056;-60
2023/02/18 12:26:28;;;;;;;5.72;4.47;;;;;15.20;99173.00;;;;5075975;28;20044;-62
2023/02/18 12:28:55;;;;;;;8.10;4.90;;;;;15.30;99147.00;;;;5076044;28;20049;-62
2023/02/18 12:31:35;;;;;;;5.45;4.25;;;;;15.30;99154.00;;;;5075777;28;20048;-61
2023/02/18 12:34:22;;;;;;;5.40;4.25;;;;;15.20;99137.00;;;;5075497;28;20044;-62
2023/02/18 12:36:58;;;;;;;5.05;3.90;;;;;15.20;99133.00;;;;5075664;28;20048;-62